createdAt,value
2022-12-13T00:01:54.737Z,99968.63
2022-12-13T00:04:24.375Z,99971.88
2022-12-13T00:06:54.149Z,99958.19
2022-12-13T00:09:22.664Z,99953.63
2022-12-13T00:11:50.791Z,99952.06
2022-12-13T00:14:18.280Z,99957.19
2022-12-13T00:16:47.207Z,99952.63
2022-12-13T00:19:15.632Z,99952.69
2022-12-13T00:21:43.370Z,99943.94
2022-12-13T00:24:10.973Z,99949.38
2022-12-13T00:26:38.609Z,99950.06
2022-12-13T00:29:08.072Z,99966.50
2022-12-13T00:31:58.784Z,99968.75
2022-12-13T00:34:25.337Z,99969.88
2022-12-13T00:36:56.240Z,99968.81
2022-12-13T00:39:23.756Z,99969.38
2022-12-13T00:41:51.362Z,99981.38
2022-12-13T00:44:20.132Z,99980.44
2022-12-13T00:46:47.866Z,99975.50
2022-12-13T00:49:15.880Z,99980.00
2022-12-13T00:51:44.090Z,99983.31
2022-12-13T00:54:11.878Z,99982.50
2022-12-13T00:56:39.316Z,99979.72
2022-12-13T00:59:06.801Z,99976.00
2022-12-13T01:01:36.140Z,99973.31
2022-12-13T01:04:05.560Z,99982.81
2022-12-13T01:06:38.836Z,99978.44
2022-12-13T01:09:10.287Z,99977.31
2022-12-13T01:11:37.800Z,99965.19
2022-12-13T01:14:05.156Z,99967.56
2022-12-13T01:16:32.514Z,99975.13
2022-12-13T01:18:59.900Z,99963.88
2022-12-13T01:21:27.241Z,99964.88
2022-12-13T01:24:03.473Z,99948.66
2022-12-13T01:26:31.872Z,99943.41
2022-12-13T01:28:59.609Z,99946.63
2022-12-13T01:31:27.368Z,99934.97
2022-12-13T01:33:55.077Z,99938.22
2022-12-13T01:36:26.946Z,99938.16
2022-12-13T01:38:58.753Z,99929.47
2022-12-13T01:41:28.914Z,99930.59
2022-12-13T01:44:03.737Z,99919.16
2022-12-13T01:46:35.472Z,99918.28
2022-12-13T01:49:19.810Z,99927.53
2022-12-13T01:52:00.017Z,99927.84
2022-12-13T01:54:33.644Z,99931.28
2022-12-13T01:57:05.539Z,99924.47
2022-12-13T01:59:36.161Z,99930.88
2022-12-13T02:02:05.025Z,99947.25
2022-12-13T02:04:45.509Z,99949.25
2022-12-13T02:07:23.236Z,99945.09
2022-12-13T02:09:56.636Z,99943.13
2022-12-13T02:12:31.115Z,99942.28
2022-12-13T02:15:02.870Z,99939.84
2022-12-13T02:17:46.464Z,99945.44
2022-12-13T02:20:23.092Z,99946.50
2022-12-13T02:23:13.748Z,99944.16
2022-12-13T02:26:03.227Z,99941.25
2022-12-13T02:28:53.999Z,99949.41
2022-12-13T02:31:41.301Z,99962.81
2022-12-13T02:34:18.522Z,99963.13
2022-12-13T02:36:48.898Z,99966.94
2022-12-13T02:39:30.341Z,99956.34
2022-12-13T02:42:07.983Z,99963.19
2022-12-13T02:44:58.022Z,99956.47
2022-12-13T02:47:27.606Z,99952.78
2022-12-13T02:49:59.338Z,99951.22
2022-12-13T02:52:29.488Z,99946.84
2022-12-13T02:54:58.281Z,99955.06
2022-12-13T02:57:37.736Z,99955.88
2022-12-13T03:00:09.664Z,99949.78
2022-12-13T03:02:37.153Z,99940.34
2022-12-13T03:05:33.455Z,99948.91
2022-12-13T03:08:17.724Z,99939.06
2022-12-13T03:11:05.603Z,99934.63
2022-12-13T03:13:59.870Z,99935.44
2022-12-13T03:16:40.038Z,99931.06
2022-12-13T03:19:09.977Z,99914.59
2022-12-13T03:21:47.623Z,99914.69
2022-12-13T03:24:20.915Z,99906.13
2022-12-13T03:26:52.405Z,99905.81
2022-12-13T03:29:24.135Z,99904.84
2022-12-13T03:31:53.702Z,99893.53
2022-12-13T03:34:23.041Z,99901.41
2022-12-13T03:36:52.863Z,99899.78
2022-12-13T03:39:20.696Z,99894.78
2022-12-13T03:41:49.412Z,99903.91
2022-12-13T03:44:16.950Z,99908.03
2022-12-13T03:46:45.240Z,99901.94
2022-12-13T03:49:17.171Z,99903.44
2022-12-13T03:51:45.507Z,99906.38
2022-12-13T03:54:13.003Z,99909.44
2022-12-13T03:56:40.568Z,99916.00
2022-12-13T03:59:08.043Z,99923.06
2022-12-13T04:01:35.537Z,99923.00
2022-12-13T04:04:02.891Z,99936.72
2022-12-13T04:06:33.041Z,99944.28
2022-12-13T04:09:00.857Z,99939.91
2022-12-13T04:11:46.550Z,99937.59
2022-12-13T04:14:21.747Z,99939.81
2022-12-13T04:16:53.564Z,99936.00
2022-12-13T04:19:23.199Z,99932.72
2022-12-13T04:21:54.392Z,99928.34
2022-12-13T04:24:31.766Z,99921.00
2022-12-13T04:27:03.620Z,99922.09
2022-12-13T04:29:34.637Z,99926.72
2022-12-13T04:32:05.048Z,99939.16
2022-12-13T04:34:37.120Z,99941.56
2022-12-13T04:37:05.759Z,99957.81
2022-12-13T04:39:34.236Z,99954.66
2022-12-13T04:42:03.568Z,99962.19
2022-12-13T04:44:36.624Z,99975.25
2022-12-13T04:47:05.692Z,99961.31
2022-12-13T04:49:33.785Z,99955.81
2022-12-13T04:52:02.461Z,99953.72
2022-12-13T04:54:35.567Z,99952.91
2022-12-13T04:57:07.410Z,99958.22
2022-12-13T04:59:35.735Z,99961.16
2022-12-13T05:02:04.994Z,99972.81
2022-12-13T05:04:33.442Z,99978.88
2022-12-13T05:07:02.510Z,99988.53
2022-12-13T05:09:30.585Z,99981.53
2022-12-13T05:12:01.362Z,99979.84
2022-12-13T05:14:32.801Z,99983.38
2022-12-13T05:17:01.209Z,99988.00
2022-12-13T05:19:30.563Z,99989.38
2022-12-13T05:22:01.108Z,99985.13
2022-12-13T05:24:31.243Z,99985.66
2022-12-13T05:26:59.816Z,99987.28
2022-12-13T05:29:28.115Z,99972.50
2022-12-13T05:31:55.726Z,99972.97
2022-12-13T05:34:23.487Z,99969.41
2022-12-13T05:36:51.050Z,99962.25
2022-12-13T05:39:28.970Z,99960.56
2022-12-13T05:42:02.204Z,99964.59
2022-12-13T05:44:32.596Z,99978.38
2022-12-13T05:47:01.932Z,99979.34
2022-12-13T05:49:29.861Z,99987.44
2022-12-13T05:51:57.086Z,99989.94
2022-12-13T05:54:24.329Z,99988.75
2022-12-13T05:56:52.213Z,99988.94
2022-12-13T05:59:19.712Z,99991.59
2022-12-13T06:01:47.055Z,99987.59
2022-12-13T06:04:23.140Z,99979.03
2022-12-13T06:06:52.219Z,99971.00
2022-12-13T06:09:20.702Z,99957.94
2022-12-13T06:11:49.497Z,99965.22
2022-12-13T06:14:21.741Z,99952.78
2022-12-13T06:16:56.916Z,99958.75
2022-12-13T06:19:25.332Z,99957.75
2022-12-13T06:21:54.920Z,99947.50
2022-12-13T06:24:23.701Z,99931.19
2022-12-13T06:26:51.281Z,99926.00
2022-12-13T06:29:23.475Z,99925.50
2022-12-13T06:32:01.981Z,99923.81
2022-12-13T06:34:36.255Z,99924.97
2022-12-13T06:37:07.265Z,99907.28
2022-12-13T06:39:35.480Z,99905.00
2022-12-13T06:42:06.409Z,99908.03
2022-12-13T06:44:34.992Z,99908.09
2022-12-13T06:47:10.223Z,99914.78
2022-12-13T06:49:43.127Z,99914.41
2022-12-13T06:52:12.828Z,99915.97
2022-12-13T06:54:41.131Z,99915.25
2022-12-13T06:57:09.287Z,99921.31
2022-12-13T07:00:13.379Z,99921.09
2022-12-13T07:02:41.583Z,99926.47
2022-12-13T07:05:10.684Z,99921.16
2022-12-13T07:07:38.177Z,99923.59
2022-12-13T07:10:05.741Z,99909.50
2022-12-13T07:12:50.133Z,99902.28
2022-12-13T07:15:17.761Z,99902.28
2022-12-13T07:17:45.287Z,99907.13
2022-12-13T07:20:13.979Z,99899.53
2022-12-13T07:22:47.884Z,99894.25
2022-12-13T07:25:28.172Z,99890.22
2022-12-13T07:28:02.722Z,99894.06
2022-12-13T07:30:40.973Z,99901.13
2022-12-13T07:33:09.665Z,99914.53
2022-12-13T07:35:37.838Z,99916.72
2022-12-13T07:38:10.934Z,99917.59
2022-12-13T07:40:40.184Z,99919.63
2022-12-13T07:43:08.118Z,99920.50
2022-12-13T07:45:36.631Z,99930.63
2022-12-13T07:48:05.761Z,99928.50
2022-12-13T07:50:37.250Z,99927.28
2022-12-13T07:53:07.793Z,99920.88
2022-12-13T07:55:36.756Z,99920.00
2022-12-13T07:58:12.453Z,99933.81
2022-12-13T08:00:46.045Z,99936.63
2022-12-13T08:03:24.664Z,99939.06
2022-12-13T08:06:04.471Z,99936.34
2022-12-13T08:08:32.943Z,99929.03
2022-12-13T08:11:06.082Z,99932.78
2022-12-13T08:13:34.741Z,99941.84
2022-12-13T08:16:05.262Z,99933.53
2022-12-13T08:18:52.676Z,99934.91
2022-12-13T08:21:58.383Z,99937.34
2022-12-13T08:24:30.324Z,99945.75
2022-12-13T08:27:03.093Z,99944.09
2022-12-13T08:29:35.141Z,99943.41
2022-12-13T08:32:09.556Z,99936.56
2022-12-13T08:34:37.558Z,99939.09
2022-12-13T08:37:05.382Z,99949.22
2022-12-13T08:39:35.669Z,99960.78
2022-12-13T08:42:16.457Z,99974.28
2022-12-13T08:44:50.847Z,99978.38
2022-12-13T08:47:23.500Z,99983.59
2022-12-13T08:50:01.571Z,100006.75
2022-12-13T08:52:39.837Z,99997.28
2022-12-13T08:55:11.006Z,99988.50
2022-12-13T08:57:39.402Z,99982.16
2022-12-13T09:00:09.192Z,99978.91
2022-12-13T09:02:38.119Z,99971.81
2022-12-13T09:05:08.051Z,99956.75
2022-12-13T09:07:36.782Z,99945.00
2022-12-13T09:10:06.997Z,99938.00
2022-12-13T09:13:01.497Z,99940.03
2022-12-13T09:15:33.902Z,99951.91
2022-12-13T09:18:05.090Z,99954.63
2022-12-13T09:20:40.955Z,99955.66
2022-12-13T09:23:13.601Z,99963.75
2022-12-13T09:26:05.984Z,99957.56
2022-12-13T09:28:35.476Z,99942.22
2022-12-13T09:31:15.900Z,99945.31
2022-12-13T09:33:44.264Z,99951.78
2022-12-13T09:36:15.052Z,99963.16
2022-12-13T09:38:42.671Z,99954.97
2022-12-13T09:41:28.780Z,99958.34
2022-12-13T09:44:04.861Z,99961.66
2022-12-13T09:46:44.088Z,99955.03
2022-12-13T09:49:35.355Z,99953.09
2022-12-13T09:52:10.522Z,99941.91
2022-12-13T09:54:49.107Z,99961.03
2022-12-13T09:57:32.146Z,99953.78
2022-12-13T10:00:13.514Z,99951.47
2022-12-13T10:02:54.035Z,99940.19
2022-12-13T10:05:39.865Z,99936.84
2022-12-13T10:08:17.039Z,99937.41
2022-12-13T10:10:45.165Z,99933.06
2022-12-13T10:13:21.846Z,99925.97
2022-12-13T10:15:58.161Z,99932.28
2022-12-13T10:18:40.188Z,99922.59
2022-12-13T10:21:42.232Z,99926.56
2022-12-13T10:24:27.281Z,99931.56
2022-12-13T10:27:17.166Z,99930.84
2022-12-13T10:30:06.651Z,99933.78
2022-12-13T10:33:02.908Z,99932.94
2022-12-13T10:35:32.657Z,99921.75
2022-12-13T10:38:31.633Z,99914.19
2022-12-13T10:41:01.694Z,99916.81
2022-12-13T10:43:30.633Z,99918.41
2022-12-13T10:46:01.158Z,99902.00
2022-12-13T10:48:47.278Z,99913.00
2022-12-13T10:51:20.195Z,99908.63
2022-12-13T10:53:59.124Z,99908.03
2022-12-13T10:57:02.437Z,99906.69
2022-12-13T10:59:38.741Z,99899.84
2022-12-13T11:02:32.058Z,99872.13
2022-12-13T11:05:16.453Z,99874.88
2022-12-13T11:07:50.888Z,99863.16
2022-12-13T11:10:26.804Z,99879.34
2022-12-13T11:13:02.561Z,99877.34
2022-12-13T11:15:32.245Z,99881.28
2022-12-13T11:18:02.694Z,99873.19
2022-12-13T11:20:38.252Z,99866.00
2022-12-13T11:23:23.294Z,99855.09
2022-12-13T11:25:56.556Z,99852.94
2022-12-13T11:28:48.230Z,99847.63
2022-12-13T11:31:31.850Z,99858.59
2022-12-13T11:34:31.165Z,99862.59
2022-12-13T11:37:11.265Z,99842.16
2022-12-13T11:39:46.460Z,99846.59
2022-12-13T11:42:19.798Z,99842.81
2022-12-13T11:45:02.980Z,99839.72
2022-12-13T11:47:44.089Z,99830.66
2022-12-13T11:50:33.591Z,99832.50
2022-12-13T11:53:23.410Z,99829.69
2022-12-13T11:56:11.853Z,99837.47
2022-12-13T11:59:16.099Z,99827.16
2022-12-13T12:02:05.094Z,99818.28
2022-12-13T12:04:46.894Z,99802.00
2022-12-13T12:07:32.278Z,99803.72
2022-12-13T12:10:23.244Z,99787.34
2022-12-13T12:12:57.857Z,99782.94
2022-12-13T12:15:55.190Z,99775.75
2022-12-13T12:18:23.360Z,99768.53
2022-12-13T12:20:53.984Z,99774.66
2022-12-13T12:23:43.669Z,99774.66
2022-12-13T12:26:18.214Z,99765.56
2022-12-13T12:29:12.385Z,99760.34
2022-12-13T12:31:51.866Z,99765.72
2022-12-13T12:34:46.267Z,99771.88
2022-12-13T12:37:43.433Z,99776.41
2022-12-13T12:41:14.635Z,99780.06
2022-12-13T12:43:42.461Z,99775.91
2022-12-13T12:46:29.578Z,99772.91
2022-12-13T12:49:01.845Z,99759.06
2022-12-13T12:51:44.916Z,99767.53
2022-12-13T12:54:32.217Z,99754.72
2022-12-13T12:57:30.836Z,99756.41
2022-12-13T13:00:12.149Z,99752.03
2022-12-13T13:03:01.633Z,99744.25
2022-12-13T13:05:37.386Z,99753.84
2022-12-13T13:08:30.156Z,99743.84
2022-12-13T13:11:01.937Z,99730.78
2022-12-13T13:14:06.627Z,99730.91
2022-12-13T13:16:38.260Z,99734.22
2022-12-13T13:19:11.763Z,99739.13
2022-12-13T13:21:47.425Z,99723.88
2022-12-13T13:24:19.454Z,99725.72
2022-12-13T13:26:48.655Z,99730.03
2022-12-13T13:29:27.193Z,99720.63
2022-12-13T13:32:05.934Z,99713.88
2022-12-13T13:34:37.561Z,99718.28
2022-12-13T13:37:25.405Z,99732.94
2022-12-13T13:39:52.975Z,99724.19
2022-12-13T13:42:21.688Z,99714.56
2022-12-13T13:44:49.825Z,99712.75
2022-12-13T13:47:41.155Z,99705.75
2022-12-13T13:50:08.666Z,99704.94
2022-12-13T13:52:54.431Z,99698.88
2022-12-13T13:56:02.003Z,99684.31
2022-12-13T13:59:04.094Z,99689.50
2022-12-13T14:02:13.440Z,99706.59
2022-12-13T14:05:02.779Z,99686.69
2022-12-13T14:07:51.165Z,99706.09
2022-12-13T14:10:56.149Z,99694.97
2022-12-13T14:13:56.058Z,99699.97
2022-12-13T14:17:00.597Z,99692.22
2022-12-13T14:20:06.569Z,99691.41
2022-12-13T14:22:52.335Z,99693.09
2022-12-13T14:25:52.054Z,99708.88
2022-12-13T14:28:26.263Z,99693.41
2022-12-13T14:31:01.411Z,99695.91
2022-12-13T14:33:30.091Z,99700.28
2022-12-13T14:36:00.030Z,99694.53
2022-12-13T14:38:30.601Z,99694.84
2022-12-13T14:41:00.472Z,99696.72
2022-12-13T14:43:32.727Z,99705.25
2022-12-13T14:46:07.297Z,99702.69
2022-12-13T14:48:43.899Z,99703.53
2022-12-13T14:51:38.247Z,99706.19
2022-12-13T14:54:08.030Z,99716.66
2022-12-13T14:56:35.433Z,99696.91
2022-12-13T14:59:11.534Z,99696.84
2022-12-13T15:01:40.516Z,99706.41
2022-12-13T15:04:27.103Z,99691.78
2022-12-13T15:07:01.548Z,99707.25
2022-12-13T15:09:30.786Z,99685.59
2022-12-13T15:12:23.557Z,99696.66
2022-12-13T15:14:53.704Z,99692.25
2022-12-13T15:17:42.547Z,99690.63
2022-12-13T15:20:26.685Z,99687.03
2022-12-13T15:23:04.600Z,99695.56
2022-12-13T15:25:35.864Z,99684.03
2022-12-13T15:28:04.694Z,99683.16
2022-12-13T15:30:35.002Z,99672.13
2022-12-13T15:33:27.604Z,99674.56
2022-12-13T15:36:13.648Z,99676.31
2022-12-13T15:38:49.767Z,99666.13
2022-12-13T15:41:19.532Z,99663.31
2022-12-13T15:44:01.384Z,99646.94
2022-12-13T15:46:38.271Z,99644.19
2022-12-13T15:49:20.056Z,99635.41
2022-12-13T15:51:59.855Z,99635.50
2022-12-13T15:54:28.739Z,99620.69
2022-12-13T15:57:17.643Z,99637.56
2022-12-13T15:59:46.079Z,99635.72
2022-12-13T16:02:24.524Z,99640.09
2022-12-13T16:04:52.494Z,99621.91
2022-12-13T16:07:27.057Z,99626.09
2022-12-13T16:09:55.734Z,99613.16
2022-12-13T16:12:47.798Z,99621.00
2022-12-13T16:15:29.316Z,99612.31
2022-12-13T16:18:16.403Z,99606.84
2022-12-13T16:20:46.161Z,99610.25
2022-12-13T16:23:26.864Z,99612.13
2022-12-13T16:25:55.412Z,99609.41
2022-12-13T16:28:26.153Z,99606.75
2022-12-13T16:30:54.140Z,99618.84
2022-12-13T16:33:26.818Z,99618.66
2022-12-13T16:35:56.224Z,99606.75
2022-12-13T16:38:26.376Z,99612.69
2022-12-13T16:40:56.741Z,99606.69
2022-12-13T16:43:33.519Z,99610.09
2022-12-13T16:47:12.236Z,99613.59
2022-12-13T16:48:51.809Z,99599.06
2022-12-13T16:51:19.841Z,99599.88
2022-12-13T16:53:47.941Z,99609.81
2022-12-13T16:56:21.621Z,99609.13
2022-12-13T16:58:50.675Z,99609.97
2022-12-13T17:01:20.271Z,99601.47
2022-12-13T17:03:47.969Z,99606.41
2022-12-13T17:06:17.074Z,99598.59
2022-12-13T17:08:44.477Z,99611.41
2022-12-13T17:11:17.817Z,99587.53
2022-12-13T17:13:47.761Z,99593.31
2022-12-13T17:16:15.753Z,99591.94
2022-12-13T17:18:43.334Z,99586.75
2022-12-13T17:21:10.715Z,99585.88
2022-12-13T17:23:38.198Z,99586.69
2022-12-13T17:26:11.474Z,99581.63
2022-12-13T17:28:39.345Z,99574.03
2022-12-13T17:31:13.392Z,99563.38
2022-12-13T17:33:42.954Z,99558.41
2022-12-13T17:36:12.151Z,99564.31
2022-12-13T17:38:45.810Z,99550.47
2022-12-13T17:41:14.664Z,99554.63
2022-12-13T17:43:43.483Z,99547.06
2022-12-13T17:46:16.784Z,99552.16
2022-12-13T17:48:45.733Z,99552.00
2022-12-13T17:51:14.151Z,99556.25
2022-12-13T17:53:43.355Z,99564.16
2022-12-13T17:56:13.149Z,99568.41
2022-12-13T17:58:40.817Z,99569.56
2022-12-13T18:01:22.974Z,99570.25
2022-12-13T18:03:53.310Z,99570.44
2022-12-13T18:06:21.455Z,99559.09
2022-12-13T18:08:49.013Z,99562.50
2022-12-13T18:11:34.343Z,99552.00
2022-12-13T18:14:08.137Z,99551.16
2022-12-13T18:16:38.673Z,99559.66
2022-12-13T18:19:10.747Z,99545.78
2022-12-13T18:21:38.775Z,99551.66
2022-12-13T18:24:07.215Z,99549.91
2022-12-13T18:26:34.960Z,99552.84
2022-12-13T18:29:03.504Z,99553.59
2022-12-13T18:31:31.103Z,99556.97
2022-12-13T18:33:58.584Z,99555.41
2022-12-13T18:36:26.798Z,99555.38
2022-12-13T18:38:54.517Z,99552.00
2022-12-13T18:41:25.170Z,99546.03
2022-12-13T18:44:00.959Z,99535.66
2022-12-13T18:46:31.133Z,99532.09
2022-12-13T18:48:58.752Z,99542.16
2022-12-13T18:51:27.451Z,99528.31
2022-12-13T18:53:56.232Z,99537.78
2022-12-13T18:56:24.931Z,99530.03
2022-12-13T18:58:53.581Z,99536.97
2022-12-13T19:01:22.985Z,99536.94
2022-12-13T19:03:51.327Z,99524.91
2022-12-13T19:06:24.915Z,99538.56
2022-12-13T19:08:56.334Z,99542.78
2022-12-13T19:11:26.835Z,99530.44
2022-12-13T19:13:55.066Z,99511.56
2022-12-13T19:16:24.229Z,99535.66
2022-12-13T19:18:51.801Z,99511.38
2022-12-13T19:21:21.746Z,99513.66
2022-12-13T19:23:56.547Z,99506.06
2022-12-13T19:26:25.958Z,99506.97
2022-12-13T19:28:53.530Z,99503.53
2022-12-13T19:31:25.470Z,99510.41
2022-12-13T19:33:56.848Z,99511.34
2022-12-13T19:36:24.518Z,99509.69
2022-12-13T19:38:51.961Z,99502.66
2022-12-13T19:41:19.467Z,99505.16
2022-12-13T19:43:52.884Z,99516.47
2022-12-13T19:46:21.684Z,99514.91
2022-12-13T19:48:49.253Z,99514.94
2022-12-13T19:51:16.955Z,99512.28
2022-12-13T19:53:44.601Z,99498.56
2022-12-13T19:56:17.864Z,99497.72
2022-12-13T19:58:48.360Z,99488.38
2022-12-13T20:01:17.385Z,99486.66
2022-12-13T20:03:46.567Z,99499.50
2022-12-13T20:06:17.260Z,99487.53
2022-12-13T20:08:46.001Z,99470.31
2022-12-13T20:11:19.171Z,99489.94
2022-12-13T20:13:48.218Z,99495.84
2022-12-13T20:16:21.777Z,99502.75
2022-12-13T20:18:54.464Z,99483.94
2022-12-13T20:21:22.178Z,99484.94
2022-12-13T20:23:50.296Z,99473.94
2022-12-13T20:26:22.189Z,99468.66
2022-12-13T20:28:50.192Z,99469.63
2022-12-13T20:31:24.000Z,99467.84
2022-12-13T20:33:56.280Z,99475.56
2022-12-13T20:36:26.922Z,99474.47
2022-12-13T20:39:00.711Z,99482.22
2022-12-13T20:41:30.361Z,99489.34
2022-12-13T20:43:59.254Z,99499.91
2022-12-13T20:46:28.016Z,99500.91
2022-12-13T20:48:57.879Z,99496.78
2022-12-13T20:51:27.179Z,99495.19
2022-12-13T20:53:56.050Z,99459.75
2022-12-13T20:56:26.735Z,99464.91
2022-12-13T20:58:54.757Z,99460.94
2022-12-13T21:01:28.449Z,99452.25
2022-12-13T21:03:58.590Z,99453.72
2022-12-13T21:06:31.796Z,99466.69
2022-12-13T21:09:02.926Z,99477.66
2022-12-13T21:11:44.131Z,99502.50
2022-12-13T21:14:25.275Z,99503.03
2022-12-13T21:16:57.972Z,99498.41
2022-12-13T21:19:28.500Z,99466.69
2022-12-13T21:21:56.988Z,99457.94
2022-12-13T21:24:26.667Z,99437.06
2022-12-13T21:26:56.553Z,99448.19
2022-12-13T21:29:24.741Z,99470.41
2022-12-13T21:31:53.480Z,99457.63
2022-12-13T21:34:23.909Z,99435.47
2022-12-13T21:36:52.950Z,99420.81
2022-12-13T21:39:23.101Z,99424.78
2022-12-13T21:41:51.028Z,99421.41
2022-12-13T21:44:19.544Z,99437.59
2022-12-13T21:47:11.393Z,99440.03
2022-12-13T21:49:35.482Z,99438.13
2022-12-13T21:52:03.278Z,99444.00
2022-12-13T21:54:31.093Z,99466.25
2022-12-13T21:57:17.196Z,99479.97
2022-12-13T21:59:44.697Z,99485.97
2022-12-13T22:02:16.845Z,99458.06
2022-12-13T22:04:51.612Z,99437.47
2022-12-13T22:07:31.140Z,99434.84
2022-12-13T22:10:00.311Z,99451.94
2022-12-13T22:12:39.702Z,99458.03
2022-12-13T22:15:12.129Z,99440.09
2022-12-13T22:17:40.305Z,99452.19
2022-12-13T22:20:11.371Z,99440.06
2022-12-13T22:22:40.322Z,99446.13
2022-12-13T22:25:08.857Z,99448.66
2022-12-13T22:27:36.589Z,99449.16
2022-12-13T22:30:04.928Z,99449.03
2022-12-13T22:32:34.032Z,99449.16
2022-12-13T22:35:01.726Z,99458.63
2022-12-13T22:37:29.739Z,99463.59
2022-12-13T22:39:57.116Z,99478.84
2022-12-13T22:42:24.573Z,99488.53
2022-12-13T22:44:51.785Z,99485.75
2022-12-13T22:47:19.863Z,99485.50
2022-12-13T22:49:48.796Z,99470.75
2022-12-13T22:52:17.477Z,99471.69
2022-12-13T22:54:45.010Z,99467.97
2022-12-13T22:57:12.510Z,99468.56
2022-12-13T22:59:40.219Z,99464.47
2022-12-13T23:02:07.845Z,99467.16
2022-12-13T23:04:35.523Z,99466.41
2022-12-13T23:07:03.039Z,99462.88
2022-12-13T23:09:31.164Z,99458.53
2022-12-13T23:12:17.417Z,99457.50
2022-12-13T23:14:44.777Z,99471.34
2022-12-13T23:17:12.298Z,99477.31
2022-12-13T23:19:50.980Z,99472.22
2022-12-13T23:22:25.242Z,99478.84
2022-12-13T23:24:53.207Z,99456.75
2022-12-13T23:27:22.778Z,99449.09
2022-12-13T23:29:50.430Z,99451.66
2022-12-13T23:32:18.018Z,99443.16
2022-12-13T23:34:45.605Z,99449.31
2022-12-13T23:37:13.732Z,99444.31
2022-12-13T23:39:41.688Z,99440.28
2022-12-13T23:42:09.055Z,99436.72
2022-12-13T23:44:36.490Z,99433.34
2022-12-13T23:47:03.808Z,99430.88
2022-12-13T23:49:31.336Z,99423.94
2022-12-13T23:51:58.562Z,99413.63
2022-12-13T23:54:26.985Z,99406.47
2022-12-13T23:56:54.604Z,99417.81
2022-12-13T23:59:22.258Z,99401.69
